createdAt,value
2023-05-22T00:01:10.804Z,5.50
2023-05-22T00:03:44.910Z,6.30
2023-05-22T00:06:19.257Z,6.70
2023-05-22T00:08:52.892Z,6.80
2023-05-22T00:11:27.020Z,5.40
2023-05-22T00:14:00.916Z,6.00
2023-05-22T00:16:34.505Z,5.60
2023-05-22T00:19:13.700Z,5.80
2023-05-22T00:21:47.909Z,7.30
2023-05-22T00:24:21.981Z,6.00
2023-05-22T00:26:55.589Z,6.30
2023-05-22T00:29:29.265Z,5.60
2023-05-22T00:32:03.439Z,6.40
2023-05-22T00:34:37.341Z,5.60
2023-05-22T00:37:11.346Z,6.40
2023-05-22T00:39:45.065Z,6.00
2023-05-22T00:42:18.797Z,6.70
2023-05-22T00:44:53.123Z,6.80
2023-05-22T00:47:27.496Z,6.20
2023-05-22T00:50:01.739Z,5.70
2023-05-22T00:52:37.102Z,6.00
2023-05-22T00:55:13.968Z,7.00
2023-05-22T00:57:47.776Z,8.40
2023-05-22T01:00:22.703Z,6.20
2023-05-22T01:02:57.250Z,5.60
2023-05-22T01:05:31.263Z,5.50
2023-05-22T01:08:05.401Z,6.00
2023-05-22T01:10:41.456Z,6.50
2023-05-22T01:13:29.829Z,5.70
2023-05-22T01:16:12.763Z,5.50
2023-05-22T01:18:55.477Z,5.90
2023-05-22T01:21:35.821Z,6.30
2023-05-22T01:24:49.095Z,5.50
2023-05-22T01:27:44.619Z,5.30
2023-05-22T01:30:29.191Z,5.60
2023-05-22T01:33:05.205Z,5.50
2023-05-22T01:35:42.301Z,5.70
2023-05-22T01:38:18.451Z,5.80
2023-05-22T01:40:52.264Z,6.60
2023-05-22T01:43:27.204Z,6.40
2023-05-22T01:46:01.818Z,6.50
2023-05-22T01:48:35.835Z,5.90
2023-05-22T01:51:17.012Z,5.50
2023-05-22T01:53:59.516Z,6.70
2023-05-22T01:56:41.042Z,5.20
2023-05-22T01:59:31.120Z,7.80
2023-05-22T02:02:09.448Z,5.60
2023-05-22T02:04:47.867Z,5.60
2023-05-22T02:07:26.743Z,6.70
2023-05-22T02:10:02.873Z,6.80
2023-05-22T02:12:37.386Z,6.70
2023-05-22T02:15:13.132Z,5.50
2023-05-22T02:17:49.923Z,5.40
2023-05-22T02:20:23.744Z,5.30
2023-05-22T02:22:57.463Z,4.90
2023-05-22T02:25:31.382Z,6.40
2023-05-22T02:28:05.683Z,5.80
2023-05-22T02:30:39.865Z,5.90
2023-05-22T02:33:13.763Z,6.20
2023-05-22T02:35:47.349Z,6.80
2023-05-22T02:38:20.942Z,5.00
2023-05-22T02:40:54.316Z,5.30
2023-05-22T02:43:27.954Z,6.30
2023-05-22T02:46:01.699Z,5.80
2023-05-22T02:48:35.651Z,6.10
2023-05-22T02:51:09.709Z,6.00
2023-05-22T02:53:44.028Z,6.90
2023-05-22T02:56:19.144Z,5.90
2023-05-22T02:58:53.301Z,7.30
2023-05-22T03:01:27.763Z,6.50
2023-05-22T03:04:01.691Z,5.50
2023-05-22T03:06:37.501Z,7.70
2023-05-22T03:09:11.947Z,5.80
2023-05-22T03:11:45.900Z,6.70
2023-05-22T03:14:19.980Z,5.50
2023-05-22T03:16:55.031Z,5.20
2023-05-22T03:19:28.840Z,6.00
2023-05-22T03:22:02.503Z,7.30
2023-05-22T03:24:36.373Z,7.50
2023-05-22T03:27:10.504Z,6.50
2023-05-22T03:32:18.633Z,5.20
2023-05-22T03:34:52.981Z,5.60
2023-05-22T03:37:26.855Z,5.00
2023-05-22T03:40:00.863Z,6.10
2023-05-22T03:42:36.985Z,5.50
2023-05-22T03:45:13.284Z,5.30
2023-05-22T03:47:47.384Z,5.20
2023-05-22T03:50:21.695Z,6.30
2023-05-22T03:52:55.663Z,6.80
2023-05-22T03:55:31.196Z,7.10
2023-05-22T03:58:04.696Z,6.30
2023-05-22T04:00:38.857Z,6.30
2023-05-22T04:03:13.391Z,5.80
2023-05-22T04:05:47.539Z,5.90
2023-05-22T04:08:21.628Z,6.10
2023-05-22T04:10:55.716Z,5.90
2023-05-22T04:13:31.322Z,6.20
2023-05-22T04:16:08.557Z,7.30
2023-05-22T04:18:42.638Z,5.60
2023-05-22T04:21:17.860Z,6.70
2023-05-22T04:23:52.956Z,8.90
2023-05-22T04:26:30.001Z,4.90
2023-05-22T04:29:04.077Z,7.30
2023-05-22T04:31:38.553Z,7.10
2023-05-22T04:34:17.615Z,6.10
2023-05-22T04:36:53.077Z,6.00
2023-05-22T04:39:26.657Z,5.90
2023-05-22T04:42:06.422Z,6.40
2023-05-22T04:44:40.214Z,5.70
2023-05-22T04:47:14.787Z,5.70
2023-05-22T04:49:48.855Z,5.50
2023-05-22T04:52:23.009Z,6.30
2023-05-22T04:54:58.817Z,6.90
2023-05-22T04:57:35.491Z,6.70
2023-05-22T05:00:11.806Z,6.40
2023-05-22T05:02:46.216Z,8.00
2023-05-22T05:05:20.485Z,7.60
2023-05-22T05:07:54.953Z,6.50
2023-05-22T05:10:30.027Z,6.10
2023-05-22T05:13:04.053Z,5.50
2023-05-22T05:15:39.710Z,6.00
2023-05-22T05:18:13.467Z,6.60
2023-05-22T05:20:49.380Z,7.10
2023-05-22T05:23:23.373Z,7.50
2023-05-22T05:25:57.494Z,6.80
2023-05-22T05:28:31.249Z,5.10
2023-05-22T05:31:08.008Z,5.80
2023-05-22T05:34:01.057Z,5.20
2023-05-22T05:36:52.816Z,6.60
2023-05-22T05:39:28.019Z,5.50
2023-05-22T05:42:02.738Z,5.50
2023-05-22T05:44:36.882Z,5.20
2023-05-22T05:47:12.759Z,5.30
2023-05-22T05:49:48.150Z,6.70
2023-05-22T05:52:22.242Z,5.30
2023-05-22T05:54:56.317Z,6.10
2023-05-22T05:57:30.564Z,5.00
2023-05-22T06:00:06.020Z,5.30
2023-05-22T06:02:50.718Z,7.80
2023-05-22T06:05:46.151Z,7.90
2023-05-22T06:08:38.495Z,7.60
2023-05-22T06:11:12.266Z,5.30
2023-05-22T06:13:55.767Z,5.20
2023-05-22T06:16:29.300Z,5.30
2023-05-22T06:19:03.327Z,7.80
2023-05-22T06:21:37.710Z,5.40
2023-05-22T06:24:12.175Z,4.50
2023-05-22T06:26:45.984Z,11.10
2023-05-22T06:29:19.605Z,5.40
2023-05-22T06:31:54.176Z,5.80
2023-05-22T06:34:29.651Z,6.80
2023-05-22T06:37:05.946Z,5.70
2023-05-22T06:39:44.033Z,8.80
2023-05-22T06:42:41.178Z,8.30
2023-05-22T06:45:33.577Z,5.50
2023-05-22T06:48:27.557Z,4.40
2023-05-22T06:51:27.720Z,4.50
2023-05-22T06:54:09.708Z,6.50
2023-05-22T06:56:43.662Z,7.90
2023-05-22T06:59:22.187Z,6.20
2023-05-22T07:01:56.392Z,6.00
2023-05-22T07:04:38.456Z,5.10
2023-05-22T07:07:19.320Z,8.60
2023-05-22T07:09:53.381Z,8.50
2023-05-22T07:12:27.482Z,4.40
2023-05-22T07:15:02.077Z,6.50
2023-05-22T07:17:35.792Z,5.30
2023-05-22T07:20:12.341Z,5.60
2023-05-22T07:22:48.123Z,4.70
2023-05-22T07:25:22.271Z,6.20
2023-05-22T07:27:55.964Z,5.10
2023-05-22T07:30:30.716Z,5.90
2023-05-22T07:33:04.617Z,4.80
2023-05-22T07:35:38.281Z,6.90
2023-05-22T07:38:12.339Z,6.50
2023-05-22T07:40:46.808Z,6.90
2023-05-22T07:43:20.526Z,4.50
2023-05-22T07:45:55.270Z,4.70
2023-05-22T07:48:31.302Z,4.30
2023-05-22T07:51:05.453Z,8.10
2023-05-22T07:53:39.412Z,4.80
2023-05-22T07:56:13.861Z,4.20
2023-05-22T07:58:49.597Z,5.00
2023-05-22T08:01:26.258Z,4.00
2023-05-22T08:04:00.318Z,4.40
2023-05-22T08:06:35.594Z,4.00
2023-05-22T08:09:09.747Z,4.70
2023-05-22T08:11:43.928Z,14.80
2023-05-22T08:14:17.617Z,6.00
2023-05-22T08:16:51.304Z,5.10
2023-05-22T08:19:25.035Z,6.30
2023-05-22T08:21:59.746Z,3.80
2023-05-22T08:24:33.351Z,4.40
2023-05-22T08:27:07.804Z,9.00
2023-05-22T08:29:41.498Z,5.90
2023-05-22T08:32:15.304Z,4.00
2023-05-22T08:34:48.524Z,6.50
2023-05-22T08:37:22.300Z,4.00
2023-05-22T08:39:55.845Z,6.10
2023-05-22T08:42:29.613Z,5.10
2023-05-22T08:45:03.690Z,4.00
2023-05-22T08:47:39.432Z,3.50
2023-05-22T08:50:14.170Z,3.90
2023-05-22T08:52:52.801Z,4.70
2023-05-22T08:55:27.230Z,5.50
2023-05-22T08:58:01.422Z,4.20
2023-05-22T09:00:36.259Z,3.30
2023-05-22T09:03:14.856Z,4.20
2023-05-22T09:05:49.707Z,3.20
2023-05-22T09:08:24.483Z,4.20
2023-05-22T09:10:58.181Z,3.50
2023-05-22T09:13:33.099Z,4.40
2023-05-22T09:18:44.392Z,4.00
2023-05-22T09:21:29.750Z,4.00
2023-05-22T09:24:09.425Z,3.80
2023-05-22T09:26:43.695Z,7.30
2023-05-22T09:29:17.677Z,3.30
2023-05-22T09:31:51.351Z,4.10
2023-05-22T09:34:29.946Z,3.40
2023-05-22T09:37:07.128Z,3.30
2023-05-22T09:39:45.083Z,3.20
2023-05-22T09:42:20.141Z,10.70
2023-05-22T09:47:27.164Z,7.40
2023-05-22T09:50:01.167Z,7.50
2023-05-22T09:52:38.066Z,5.30
2023-05-22T09:55:16.058Z,5.30
2023-05-22T09:57:53.522Z,4.10
2023-05-22T10:00:29.634Z,5.40
2023-05-22T10:03:12.388Z,8.30
2023-05-22T10:05:49.300Z,3.60
2023-05-22T10:08:26.362Z,5.50
2023-05-22T10:11:00.699Z,3.10
2023-05-22T10:13:34.829Z,4.70
2023-05-22T10:16:09.237Z,4.30
2023-05-22T10:18:44.141Z,4.90
2023-05-22T10:21:21.704Z,3.70
2023-05-22T10:23:56.608Z,4.20
2023-05-22T10:26:31.312Z,3.80
2023-05-22T10:29:11.999Z,4.20
2023-05-22T10:31:53.373Z,3.50
2023-05-22T10:34:40.725Z,5.00
2023-05-22T10:37:30.955Z,4.10
2023-05-22T10:40:07.145Z,4.40
2023-05-22T10:42:41.315Z,4.60
2023-05-22T10:45:15.227Z,5.40
2023-05-22T10:47:48.894Z,3.60
2023-05-22T10:50:22.983Z,3.90
2023-05-22T10:53:24.562Z,4.60
2023-05-22T10:55:59.488Z,3.70
2023-05-22T10:58:36.778Z,3.80
2023-05-22T11:01:17.457Z,4.30
2023-05-22T11:03:59.958Z,3.80
2023-05-22T11:06:41.398Z,3.40
2023-05-22T11:09:31.846Z,3.90
2023-05-22T11:12:28.878Z,3.20
2023-05-22T11:15:07.538Z,5.20
2023-05-22T11:17:52.019Z,3.80
2023-05-22T11:20:27.187Z,3.60
2023-05-22T11:23:03.687Z,3.60
2023-05-22T11:25:42.347Z,3.60
2023-05-22T11:28:16.499Z,3.80
2023-05-22T11:30:50.702Z,4.10
2023-05-22T11:33:25.312Z,3.60
2023-05-22T11:35:59.102Z,4.10
2023-05-22T11:38:33.399Z,6.00
2023-05-22T11:41:07.281Z,3.90
2023-05-22T11:43:41.815Z,4.90
2023-05-22T11:46:15.691Z,3.70
2023-05-22T11:48:50.888Z,4.80
2023-05-22T11:51:25.265Z,4.40
2023-05-22T11:53:58.675Z,4.20
2023-05-22T11:56:32.056Z,4.80
2023-05-22T11:59:05.834Z,8.60
2023-05-22T12:01:39.460Z,4.10
2023-05-22T12:04:13.032Z,4.20
2023-05-22T12:06:46.982Z,3.60
2023-05-22T12:09:20.985Z,3.90
2023-05-22T12:11:56.455Z,3.70
2023-05-22T12:17:04.697Z,4.70
2023-05-22T12:19:41.380Z,4.20
2023-05-22T12:22:15.383Z,3.00
2023-05-22T12:24:53.516Z,3.80
2023-05-22T12:27:33.070Z,3.80
2023-05-22T12:30:18.181Z,3.80
2023-05-22T12:32:53.717Z,4.70
2023-05-22T12:38:01.270Z,5.00
2023-05-22T12:40:37.147Z,6.40
2023-05-22T12:43:10.712Z,3.70
2023-05-22T12:45:44.054Z,4.70
2023-05-22T12:48:18.402Z,3.90
2023-05-22T12:50:52.553Z,3.80
2023-05-22T12:53:26.195Z,4.20
2023-05-22T12:55:59.619Z,4.10
2023-05-22T12:58:32.938Z,5.50
2023-05-22T13:01:06.548Z,3.90
2023-05-22T13:03:43.269Z,4.10
2023-05-22T13:06:18.644Z,4.20
2023-05-22T13:08:52.479Z,3.50
2023-05-22T13:11:26.770Z,4.80
2023-05-22T13:14:00.161Z,4.30
2023-05-22T13:16:34.430Z,4.40
2023-05-22T13:19:07.902Z,4.30
2023-05-22T13:21:41.562Z,3.40
2023-05-22T13:24:15.110Z,4.00
2023-05-22T13:26:48.858Z,4.90
2023-05-22T13:29:22.360Z,3.30
2023-05-22T13:31:56.704Z,4.30
2023-05-22T13:34:37.784Z,4.00
2023-05-22T13:37:18.760Z,4.20
2023-05-22T13:39:52.755Z,3.90
2023-05-22T13:42:26.377Z,4.30
2023-05-22T13:45:00.242Z,4.30
2023-05-22T13:47:34.375Z,3.90
2023-05-22T13:50:10.296Z,4.20
2023-05-22T13:53:01.077Z,3.50
2023-05-22T13:55:53.330Z,3.50
2023-05-22T13:58:27.131Z,4.10
2023-05-22T14:01:00.826Z,4.50
2023-05-22T14:03:34.462Z,3.60
2023-05-22T14:06:08.927Z,5.30
2023-05-22T14:08:42.602Z,3.40
2023-05-22T14:11:16.482Z,3.70
2023-05-22T14:13:50.973Z,4.40
2023-05-22T14:16:25.733Z,3.50
2023-05-22T14:19:01.193Z,3.00
2023-05-22T14:21:35.475Z,5.20
2023-05-22T14:24:10.092Z,3.80
2023-05-22T14:26:44.101Z,5.60
2023-05-22T14:29:18.127Z,3.30
2023-05-22T14:31:53.211Z,3.50
2023-05-22T14:34:27.160Z,4.00
2023-05-22T14:37:01.450Z,4.00
2023-05-22T14:39:35.218Z,3.70
2023-05-22T14:42:10.243Z,4.70
2023-05-22T14:44:44.105Z,4.20
2023-05-22T14:47:17.875Z,3.30
2023-05-22T14:49:51.711Z,5.40
2023-05-22T14:52:26.996Z,4.00
2023-05-22T14:55:01.434Z,4.40
2023-05-22T14:57:36.397Z,6.00
2023-05-22T15:00:13.111Z,4.10
2023-05-22T15:02:46.981Z,4.50
2023-05-22T15:05:20.993Z,4.20
2023-05-22T15:07:58.934Z,3.20
2023-05-22T15:10:32.419Z,4.40
2023-05-22T15:13:06.701Z,4.60
2023-05-22T15:15:40.901Z,5.00
2023-05-22T15:18:14.999Z,4.20
2023-05-22T15:20:48.736Z,4.60
2023-05-22T15:23:25.533Z,4.40
2023-05-22T15:25:59.340Z,4.00
2023-05-22T15:28:33.219Z,4.70
2023-05-22T15:31:07.301Z,4.00
2023-05-22T15:33:41.296Z,3.20
2023-05-22T15:36:15.264Z,4.00
2023-05-22T15:38:49.130Z,4.50
2023-05-22T15:41:23.309Z,4.40
2023-05-22T15:43:57.770Z,5.00
2023-05-22T15:46:32.981Z,5.20
2023-05-22T15:49:07.186Z,3.20
2023-05-22T15:51:41.329Z,3.60
2023-05-22T15:54:15.460Z,4.00
2023-05-22T15:56:49.647Z,4.10
2023-05-22T15:59:24.035Z,4.30
2023-05-22T16:01:57.920Z,4.00
2023-05-22T16:04:31.932Z,4.30
2023-05-22T16:07:06.654Z,5.00
2023-05-22T16:09:41.507Z,4.10
2023-05-22T16:12:15.346Z,4.30
2023-05-22T16:14:49.626Z,3.70
2023-05-22T16:17:23.476Z,7.20
2023-05-22T16:19:57.694Z,5.40
2023-05-22T16:22:44.235Z,4.80
2023-05-22T16:25:22.771Z,4.40
2023-05-22T16:27:56.306Z,4.20
2023-05-22T16:30:29.857Z,3.80
2023-05-22T16:33:03.922Z,4.00
2023-05-22T16:35:38.397Z,4.80
2023-05-22T16:38:12.480Z,4.20
2023-05-22T16:40:46.202Z,5.60
2023-05-22T16:43:19.892Z,3.50
2023-05-22T16:45:53.816Z,3.70
2023-05-22T16:48:28.930Z,6.50
2023-05-22T16:51:02.657Z,5.20
2023-05-22T16:53:38.281Z,7.40
2023-05-22T16:56:12.761Z,5.20
2023-05-22T16:58:46.637Z,4.40
2023-05-22T17:01:22.159Z,3.70
2023-05-22T17:06:29.795Z,4.40
2023-05-22T17:09:04.040Z,5.00
2023-05-22T17:11:38.659Z,8.40
2023-05-22T17:14:13.155Z,8.10
2023-05-22T17:16:47.134Z,9.40
2023-05-22T17:19:22.433Z,6.80
2023-05-22T17:21:57.149Z,5.70
2023-05-22T17:24:30.985Z,9.50
2023-05-22T17:27:07.004Z,13.40
2023-05-22T17:29:41.095Z,7.70
2023-05-22T17:32:17.351Z,9.70
2023-05-22T17:34:52.124Z,10.20
2023-05-22T17:37:26.066Z,6.50
2023-05-22T17:40:00.243Z,7.20
2023-05-22T17:42:34.194Z,7.00
2023-05-22T17:45:09.661Z,7.20
2023-05-22T17:47:43.439Z,8.70
2023-05-22T17:50:17.542Z,8.10
2023-05-22T17:52:51.659Z,7.70
2023-05-22T17:55:25.960Z,9.60
2023-05-22T17:57:59.903Z,66.40
2023-05-22T18:00:34.071Z,42.10
2023-05-22T18:03:08.829Z,11.70
2023-05-22T18:05:43.743Z,9.50
2023-05-22T18:08:18.289Z,9.80
2023-05-22T18:10:52.673Z,6.80
2023-05-22T18:13:26.750Z,6.50
2023-05-22T18:16:02.724Z,6.50
2023-05-22T18:21:10.572Z,10.00
2023-05-22T18:23:45.033Z,17.30
2023-05-22T18:26:19.240Z,24.00
2023-05-22T18:28:53.336Z,33.80
2023-05-22T18:31:27.649Z,19.60
2023-05-22T18:34:02.830Z,87.60
2023-05-22T18:36:37.581Z,112.90
2023-05-22T18:39:13.779Z,33.00
2023-05-22T18:41:47.947Z,14.60
2023-05-22T18:44:22.344Z,9.70
2023-05-22T18:46:56.585Z,7.70
2023-05-22T18:49:31.738Z,6.60
2023-05-22T18:52:07.520Z,7.60
2023-05-22T18:54:41.773Z,6.40
2023-05-22T18:57:16.450Z,7.50
2023-05-22T18:59:51.730Z,8.60
2023-05-22T19:02:26.022Z,11.10
2023-05-22T19:05:00.790Z,10.40
2023-05-22T19:07:35.146Z,12.80
2023-05-22T19:10:11.578Z,11.30
2023-05-22T19:12:45.963Z,6.40
2023-05-22T19:15:20.367Z,8.90
2023-05-22T19:17:54.344Z,16.50
2023-05-22T19:20:28.633Z,8.40
2023-05-22T19:23:02.563Z,15.70
2023-05-22T19:25:36.433Z,28.00
2023-05-22T19:28:10.378Z,12.90
2023-05-22T19:30:44.908Z,12.30
2023-05-22T19:33:19.119Z,12.80
2023-05-22T19:35:53.625Z,11.40
2023-05-22T19:38:27.619Z,10.40
2023-05-22T19:41:01.515Z,8.10
2023-05-22T19:43:35.550Z,6.60
2023-05-22T19:46:09.698Z,6.20
2023-05-22T19:48:43.815Z,6.10
2023-05-22T19:51:17.748Z,7.30
2023-05-22T19:53:51.435Z,6.90
2023-05-22T19:56:25.040Z,6.90
2023-05-22T19:58:59.092Z,7.20
2023-05-22T20:01:33.130Z,7.10
2023-05-22T20:04:08.450Z,7.50
2023-05-22T20:06:45.700Z,5.70
2023-05-22T20:09:21.223Z,6.30
2023-05-22T20:11:55.347Z,6.00
2023-05-22T20:14:32.286Z,8.80
2023-05-22T20:17:08.797Z,7.60
2023-05-22T20:19:45.837Z,6.20
2023-05-22T20:22:20.007Z,6.70
2023-05-22T20:24:54.624Z,62.60
2023-05-22T20:27:28.339Z,14.80
2023-05-22T20:30:02.728Z,10.80
2023-05-22T20:32:36.892Z,12.70
2023-05-22T20:35:14.422Z,15.80
2023-05-22T20:37:53.676Z,9.50
2023-05-22T20:40:30.184Z,10.10
2023-05-22T20:43:04.670Z,8.90
2023-05-22T20:45:39.295Z,8.40
2023-05-22T20:48:13.939Z,8.60
2023-05-22T20:50:51.182Z,7.30
2023-05-22T20:53:26.383Z,6.80
2023-05-22T20:56:00.453Z,7.40
2023-05-22T20:58:34.330Z,8.30
2023-05-22T21:01:08.142Z,8.60
2023-05-22T21:03:42.066Z,7.20
2023-05-22T21:06:16.055Z,7.60
2023-05-22T21:08:51.444Z,6.90
2023-05-22T21:11:27.137Z,9.70
2023-05-22T21:14:00.906Z,8.80
2023-05-22T21:16:36.380Z,7.70
2023-05-22T21:19:13.342Z,7.20
2023-05-22T21:21:47.418Z,8.50
2023-05-22T21:24:22.222Z,7.00
2023-05-22T21:26:56.048Z,6.50
2023-05-22T21:29:29.797Z,8.10
2023-05-22T21:32:03.499Z,7.30
2023-05-22T21:34:37.122Z,6.80
2023-05-22T21:37:12.058Z,10.10
2023-05-22T21:39:45.920Z,8.00
2023-05-22T21:42:21.363Z,8.70
2023-05-22T21:44:56.416Z,7.30
2023-05-22T21:47:30.396Z,8.50
2023-05-22T21:50:04.521Z,7.00
2023-05-22T21:52:38.316Z,7.30
2023-05-22T21:55:13.012Z,8.90
2023-05-22T21:57:47.016Z,7.20
2023-05-22T22:00:21.840Z,8.60
2023-05-22T22:02:57.717Z,10.20
2023-05-22T22:08:03.648Z,9.90
2023-05-22T22:10:37.740Z,7.70
2023-05-22T22:13:11.862Z,8.40
2023-05-22T22:15:45.508Z,7.80
2023-05-22T22:18:19.883Z,7.60
2023-05-22T22:20:54.414Z,7.40
2023-05-22T22:23:28.296Z,7.90
2023-05-22T22:26:02.061Z,8.40
2023-05-22T22:28:35.976Z,7.50
2023-05-22T22:31:09.475Z,8.10
2023-05-22T22:33:43.485Z,8.30
2023-05-22T22:36:17.373Z,7.30
2023-05-22T22:38:51.246Z,7.40
2023-05-22T22:41:25.093Z,8.90
2023-05-22T22:43:58.946Z,6.80
2023-05-22T22:46:32.652Z,6.90
2023-05-22T22:49:07.428Z,8.00
2023-05-22T22:51:41.424Z,6.40
2023-05-22T22:54:16.017Z,8.80
